Flight Track Log - Related Links

Times and Time Zones

All times are in EDT time to prevent confusion due to time zone crossing. See the SLI2111 flight status page for this flight to view local times or setup timezone preferences in your user account.

Time Position Orientation Groundspeed Altitude Reporting Facility
EDT Latitude Longitude Course Direction KTS MPH feet Rate Location/Type
Mon 11:16:00 AM 24.8304 -107.0688 80° East  Level Estimated
Mon 11:17:00 AM 24.8467 -106.9673 80° East  Level Estimated
Mon 11:18:00 AM 24.8629 -106.8657 80° East  Level Estimated
Mon 11:19:00 AM 24.8790 -106.7642 80° East  Level Estimated
Mon 11:20:00 AM 24.8951 -106.6625 80° East  Level Estimated
Mon 11:21:00 AM 24.9111 -106.5609 80° East  Level Estimated
Mon 11:22:00 AM 24.9271 -106.4592 80° East  Level Estimated
Mon 11:23:00 AM 24.9429 -106.3575 80° East  Level Estimated
Mon 11:24:00 AM 24.9587 -106.2558 80° East  Level Estimated
Mon 11:25:00 AM 24.9745 -106.1541 80° East  Level Estimated
Mon 11:26:00 AM 24.9902 -106.0523 80° East  Level Estimated
Mon 11:27:00 AM 25.0058 -105.9505 80° East  Level Estimated
Mon 11:28:00 AM 25.0213 -105.8486 80° East  Level Estimated
Mon 11:29:00 AM 25.0368 -105.7468 80° East  Level Estimated
Mon 11:30:00 AM 25.0521 -105.6449 81° East  Level Estimated
Mon 11:31:00 AM 25.0675 -105.5430 81° East  Level Estimated
Mon 11:32:00 AM 25.0827 -105.4411 81° East  Level Estimated
Mon 11:33:00 AM 25.0979 -105.3391 81° East  Level Estimated
Mon 11:34:00 AM 25.1130 -105.2372 81° East  Level Estimated
Mon 11:35:00 AM 25.1280 -105.1352 81° East  Level Estimated
Mon 11:36:00 AM 25.1430 -105.0331 81° East  Level Estimated
Mon 11:37:00 AM 25.1579 -104.9311 81° East  Level Estimated
Mon 11:38:00 AM 25.1727 -104.8290 81° East  Level Estimated
Mon 11:39:00 AM 25.1875 -104.7269 81° East  Level Estimated
Mon 11:40:00 AM 25.2022 -104.6248 81° East  Level Estimated
Mon 11:41:00 AM 25.2168 -104.5226 81° East  Level Estimated
Mon 11:42:00 AM 25.2314 -104.4204 81° East  Level Estimated
Mon 11:43:00 AM 25.2458 -104.3182 81° East  Level Estimated
Mon 11:44:00 AM 25.2603 -104.2160 81° East  Level Estimated
Mon 11:45:00 AM 25.2746 -104.1138 81° East  Level Estimated
Mon 11:46:00 AM 25.2889 -104.0115 81° East  Level Estimated
Mon 11:47:00 AM 25.3031 -103.9092 81° East  Level Estimated
Mon 11:48:00 AM 25.3172 -103.8069 81° East  Level Estimated
Mon 11:49:00 AM 25.3312 -103.7045 81° East  Level Estimated
Mon 11:50:00 AM 25.3452 -103.6021 81° East  Level Estimated
Mon 11:51:00 AM 25.3592 -103.4998 81° East  Level Estimated
Mon 11:52:00 AM 25.3730 -103.3973 81° East  Level Estimated
Mon 11:53:00 AM 25.3868 -103.2949 82° East  Level Estimated
Mon 11:54:00 AM 25.4005 -103.1924 82° East  Level Estimated
Mon 11:55:00 AM 25.4141 -103.0900 82° East  Level Estimated
Mon 11:56:00 AM 25.4277 -102.9874 82° East  Level Estimated
Mon 11:57:00 AM 25.4412 -102.8849 82° East  Level Estimated
Mon 11:58:00 AM 25.4546 -102.7823 82° East  Level Estimated
Mon 11:59:00 AM 25.4679 -102.6798 82° East  Level Estimated
Mon 12:00:00 PM 25.4812 -102.5772 82° East  Level Estimated
Mon 12:01:00 PM 25.4944 -102.4745 82° East  Level Estimated
Mon 12:02:00 PM 25.5076 -102.3719 82° East  Level Estimated
Mon 12:03:00 PM 25.5206 -102.2692 82° East  Level Estimated
Mon 12:04:00 PM 25.5336 -102.1665 82° East  Level Estimated
Mon 12:05:00 PM 25.5465 -102.0638 82° East  Level Estimated
Mon 12:06:00 PM 25.5594 -101.9611 82° East  Level Estimated
Mon 12:07:00 PM 25.5722 -101.8583 82° East  Level Estimated
Mon 12:08:00 PM 25.5849 -101.7555 82° East  Level Estimated
Mon 12:09:00 PM 25.5975 -101.6527 82° East  Level Estimated
Mon 12:10:00 PM 25.6101 -101.5499 82° East  Level Estimated
Mon 12:11:00 PM 25.6225 -101.4471 82° East  Level Estimated
Mon 12:12:00 PM 25.6350 -101.3442 82° East  Level Estimated
Mon 12:13:00 PM 25.6473 -101.2413 82° East  Level Estimated
Mon 12:14:00 PM 25.6596 -101.1384 82° East  Level Estimated
Mon 12:15:00 PM 25.6718 -101.0355 82° East  Level Estimated
Mon 12:16:00 PM 25.6839 -100.9325 83° East  Level Estimated
Mon 12:17:00 PM 25.6960 -100.8296 83° East  Level Estimated
Mon 12:18:00 PM 25.7080 -100.7266 83° East  Level Estimated
Mon 12:19:00 PM 25.7199 -100.6236 83° East  Level Estimated
Mon 12:20:00 PM 25.7317 -100.5205 83° East  Level Estimated
Mon 12:21:00 PM 25.7435 -100.4175 83° East  Level Estimated
Mon 12:22:00 PM 25.7552 -100.3144 83° East  Level Estimated
Mon 12:23:00 PM 25.7668 -100.2113 83° East  Level Estimated
Mon 12:24:00 PM 25.7783 -100.1082 83° East  Level Estimated
Mon 12:25:00 PM 25.7785 -100.1069 83° East  Level Estimated
Mon 12:26:00 PM 25.7785 -100.1069 119° Southeast  Level Estimated

Login

Don't have an account? Register now (free) for customized features, flight alerts, and more!